createdAt,value
2018-04-10T00:01:56.861Z,5.40
2018-04-10T00:06:00.432Z,5.93
2018-04-10T00:10:03.191Z,5.60
2018-04-10T00:14:05.922Z,5.43
2018-04-10T00:18:09.418Z,5.53
2018-04-10T00:22:12.128Z,6.27
2018-04-10T00:26:15.133Z,5.63
2018-04-10T00:30:18.680Z,5.00
2018-04-10T00:34:21.476Z,5.70
2018-04-10T00:38:24.313Z,5.63
2018-04-10T00:42:27.051Z,4.67
2018-04-10T00:46:29.736Z,7.37
2018-04-10T00:50:32.468Z,5.73
2018-04-10T00:54:35.207Z,6.20
2018-04-10T00:58:38.113Z,8.50
2018-04-10T01:02:40.872Z,6.00
2018-04-10T01:06:44.422Z,7.17
2018-04-10T01:10:47.233Z,6.10
2018-04-10T01:14:49.987Z,5.37
2018-04-10T01:18:53.561Z,6.00
2018-04-10T01:22:57.186Z,6.90
2018-04-10T01:26:59.934Z,5.63
2018-04-10T01:31:02.767Z,5.63
2018-04-10T01:35:05.502Z,5.20
2018-04-10T01:39:08.484Z,6.20
2018-04-10T01:43:11.211Z,6.73
2018-04-10T01:47:14.786Z,6.40
2018-04-10T01:51:17.530Z,6.00
2018-04-10T01:55:21.068Z,6.33
2018-04-10T01:59:23.807Z,9.87
2018-04-10T02:03:26.568Z,6.10
2018-04-10T02:07:29.321Z,7.73
2018-04-10T02:11:32.270Z,6.60
2018-04-10T02:15:35.124Z,5.80
2018-04-10T02:19:38.596Z,7.23
2018-04-10T02:23:42.233Z,8.23
2018-04-10T02:27:44.971Z,6.00
2018-04-10T02:31:47.879Z,7.47
2018-04-10T02:35:50.619Z,6.67
2018-04-10T02:39:53.452Z,6.73
2018-04-10T02:43:56.971Z,5.97
2018-04-10T02:48:00.522Z,7.30
2018-04-10T02:52:03.258Z,6.80
2018-04-10T02:56:06.039Z,7.20
2018-04-10T03:00:08.797Z,6.90
2018-04-10T03:04:11.793Z,6.70
2018-04-10T03:08:14.533Z,7.33
2018-04-10T03:12:17.373Z,7.40
2018-04-10T03:16:21.240Z,7.10
2018-04-10T03:20:24.041Z,7.17
2018-04-10T03:24:26.832Z,7.23
2018-04-10T03:28:29.684Z,7.00
2018-04-10T03:32:33.187Z,6.40
2018-04-10T03:36:36.244Z,7.37
2018-04-10T03:40:39.002Z,6.67
2018-04-10T03:44:42.567Z,7.67
2018-04-10T03:48:45.282Z,8.33
2018-04-10T03:52:48.212Z,8.40
2018-04-10T03:56:51.717Z,7.30
2018-04-10T04:00:55.444Z,7.43
2018-04-10T04:04:58.957Z,7.60
2018-04-10T04:09:02.616Z,8.17
2018-04-10T04:13:05.432Z,6.40
2018-04-10T04:17:20.076Z,7.90
2018-04-10T04:21:34.615Z,7.73
2018-04-10T04:25:37.327Z,6.73
2018-04-10T04:29:40.244Z,6.83
2018-04-10T04:33:42.968Z,6.80
2018-04-10T04:37:47.717Z,7.70
2018-04-10T04:41:50.559Z,8.50
2018-04-10T04:45:53.481Z,7.40
2018-04-10T04:49:56.219Z,7.63
2018-04-10T04:53:58.971Z,6.87
2018-04-10T04:58:01.719Z,7.33
2018-04-10T05:02:05.310Z,8.13
2018-04-10T05:06:08.033Z,10.23
2018-04-10T05:10:11.682Z,6.17
2018-04-10T05:14:14.459Z,6.53
2018-04-10T05:18:17.979Z,5.63
2018-04-10T05:22:20.782Z,6.50
2018-04-10T05:26:23.523Z,6.10
2018-04-10T05:30:26.333Z,8.03
2018-04-10T05:34:29.063Z,5.87
2018-04-10T05:38:32.162Z,5.67
2018-04-10T05:42:35.061Z,6.77
2018-04-10T05:46:38.570Z,5.40
2018-04-10T05:50:42.352Z,5.70
2018-04-10T05:54:45.106Z,5.50
2018-04-10T05:58:48.144Z,6.10
2018-04-10T06:02:51.654Z,5.33
2018-04-10T06:06:54.506Z,6.23
2018-04-10T06:10:58.022Z,5.87
2018-04-10T06:15:01.544Z,5.17
2018-04-10T06:19:04.433Z,5.43
2018-04-10T06:23:07.218Z,5.13
2018-04-10T06:27:10.030Z,6.00
2018-04-10T06:31:13.754Z,5.30
2018-04-10T06:35:17.300Z,4.80
2018-04-10T06:39:20.649Z,6.50
2018-04-10T06:43:23.594Z,4.90
2018-04-10T06:47:27.060Z,4.80
2018-04-10T06:51:31.278Z,5.37
2018-04-10T06:55:34.171Z,4.83
2018-04-10T06:59:37.271Z,4.40
2018-04-10T07:03:40.972Z,4.70
2018-04-10T07:07:44.781Z,4.30
2018-04-10T07:11:47.812Z,4.93
2018-04-10T07:15:50.786Z,4.27
2018-04-10T07:19:54.445Z,4.47
2018-04-10T07:23:57.282Z,4.10
2018-04-10T07:28:00.817Z,6.87
2018-04-10T07:32:04.176Z,3.17
2018-04-10T07:36:07.967Z,3.60
2018-04-10T07:40:10.980Z,4.37
2018-04-10T07:44:14.163Z,4.03
2018-04-10T07:48:17.158Z,5.10
2018-04-10T07:52:20.296Z,4.50
2018-04-10T07:56:23.177Z,3.03
2018-04-10T08:00:26.182Z,4.40
2018-04-10T08:04:28.896Z,3.73
2018-04-10T08:08:31.676Z,3.67
2018-04-10T08:12:35.511Z,4.50
2018-04-10T08:16:38.307Z,3.63
2018-04-10T08:20:41.153Z,4.50
2018-04-10T08:24:44.648Z,3.70
2018-04-10T08:28:47.402Z,4.07
2018-04-10T08:32:50.342Z,4.30
2018-04-10T08:36:53.114Z,4.13
2018-04-10T08:40:56.079Z,3.73
2018-04-10T08:44:58.835Z,3.80
2018-04-10T08:49:01.551Z,4.17
2018-04-10T08:53:05.330Z,4.87
2018-04-10T08:57:08.846Z,4.60
2018-04-10T09:01:11.798Z,4.00
2018-04-10T09:05:15.303Z,4.20
2018-04-10T09:09:18.840Z,4.03
2018-04-10T09:13:21.776Z,4.03
2018-04-10T09:17:24.520Z,3.80
2018-04-10T09:21:28.201Z,3.70
2018-04-10T09:25:31.037Z,4.30
2018-04-10T09:29:34.643Z,4.43
2018-04-10T09:33:37.571Z,3.60
2018-04-10T09:37:40.313Z,3.63
2018-04-10T09:41:43.042Z,3.80
2018-04-10T09:45:46.707Z,3.60
2018-04-10T09:49:49.448Z,3.60
2018-04-10T09:53:52.216Z,4.53
2018-04-10T09:57:54.978Z,3.47
2018-04-10T10:01:58.090Z,3.60
2018-04-10T10:06:00.928Z,5.20
2018-04-10T10:10:16.392Z,3.33
2018-04-10T10:14:19.332Z,3.77
2018-04-10T10:18:22.047Z,3.97
2018-04-10T10:22:25.537Z,3.67
2018-04-10T10:26:28.318Z,3.70
2018-04-10T10:30:31.105Z,4.23
2018-04-10T10:34:34.058Z,3.87
2018-04-10T10:38:37.574Z,3.40
2018-04-10T10:42:41.053Z,3.60
2018-04-10T10:46:43.795Z,4.00
2018-04-10T10:50:46.524Z,3.63
2018-04-10T10:54:49.496Z,3.78
2018-04-10T10:58:52.337Z,4.13
2018-04-10T11:02:55.116Z,2.80
2018-04-10T11:06:58.774Z,3.30
2018-04-10T11:11:01.522Z,3.57
2018-04-10T11:15:04.488Z,4.20
2018-04-10T11:19:07.980Z,3.60
2018-04-10T11:23:10.768Z,3.20
2018-04-10T11:27:14.029Z,3.27
2018-04-10T11:31:19.073Z,4.50
2018-04-10T11:35:25.704Z,2.63
2018-04-10T11:39:31.804Z,2.40
2018-04-10T11:43:34.976Z,2.50
2018-04-10T11:47:37.995Z,2.00
2018-04-10T11:51:41.826Z,2.13
2018-04-10T11:55:45.753Z,2.13
2018-04-10T11:59:48.483Z,2.50
2018-04-10T12:03:51.253Z,2.27
2018-04-10T12:07:54.893Z,1.70
2018-04-10T12:11:57.624Z,2.43
2018-04-10T12:16:00.524Z,1.80
2018-04-10T12:20:03.283Z,2.90
2018-04-10T12:24:06.820Z,2.33
2018-04-10T12:28:09.685Z,2.60
2018-04-10T12:32:13.221Z,1.80
2018-04-10T12:36:16.041Z,1.67
2018-04-10T12:40:18.759Z,2.27
2018-04-10T12:44:21.484Z,1.90
2018-04-10T12:48:24.353Z,1.60
2018-04-10T12:52:27.284Z,1.50
2018-04-10T12:56:30.079Z,1.80
2018-04-10T13:00:32.847Z,1.57
2018-04-10T13:04:35.604Z,1.20
2018-04-10T13:08:38.688Z,1.93
2018-04-10T13:12:42.198Z,1.53
2018-04-10T13:16:45.712Z,1.27
2018-04-10T13:20:49.281Z,1.70
2018-04-10T13:24:52.022Z,1.37
2018-04-10T13:28:55.745Z,1.20
2018-04-10T13:32:59.281Z,1.23
2018-04-10T13:37:02.542Z,1.37
2018-04-10T13:41:05.277Z,1.67
2018-04-10T13:45:08.092Z,0.97
2018-04-10T13:49:10.887Z,1.37
2018-04-10T13:53:13.754Z,1.97
2018-04-10T13:57:16.919Z,1.40
2018-04-10T14:01:19.767Z,1.03
2018-04-10T14:05:22.573Z,5.37
2018-04-10T14:09:26.430Z,1.23
2018-04-10T14:13:29.209Z,1.53
2018-04-10T14:17:32.191Z,1.77
2018-04-10T14:21:35.038Z,1.30
2018-04-10T14:25:37.808Z,1.70
2018-04-10T14:29:40.666Z,1.60
2018-04-10T14:33:43.497Z,1.40
2018-04-10T14:37:47.229Z,1.83
2018-04-10T14:41:49.956Z,1.80
2018-04-10T14:45:52.697Z,1.37
2018-04-10T14:49:57.252Z,2.07
2018-04-10T14:54:00.970Z,2.20
2018-04-10T14:58:03.841Z,2.07
2018-04-10T15:02:06.573Z,2.47
2018-04-10T15:06:09.566Z,2.10
2018-04-10T15:10:12.440Z,2.90
2018-04-10T15:14:15.236Z,3.33
2018-04-10T15:18:17.994Z,3.27
2018-04-10T15:22:21.547Z,4.30
2018-04-10T15:26:24.337Z,3.00
2018-04-10T15:30:27.160Z,3.57
2018-04-10T15:34:30.700Z,3.57
2018-04-10T15:38:33.472Z,3.47
2018-04-10T15:42:36.948Z,4.00
2018-04-10T15:46:39.731Z,3.60
2018-04-10T15:50:42.515Z,4.20
2018-04-10T15:54:45.227Z,4.17
2018-04-10T15:58:48.074Z,4.47
2018-04-10T16:02:52.155Z,3.50
2018-04-10T16:06:54.894Z,3.40
2018-04-10T16:10:58.630Z,3.87
2018-04-10T16:15:02.164Z,3.47
2018-04-10T16:19:05.122Z,3.37
2018-04-10T16:23:07.866Z,3.77
2018-04-10T16:27:10.902Z,3.63
2018-04-10T16:31:13.737Z,6.80
2018-04-10T16:35:16.486Z,3.70
2018-04-10T16:39:19.242Z,4.20
2018-04-10T16:43:22.163Z,4.40
2018-04-10T16:47:25.180Z,4.40
2018-04-10T16:51:27.924Z,4.17
2018-04-10T16:55:31.519Z,5.13
2018-04-10T16:59:34.262Z,4.13
2018-04-10T17:03:37.002Z,4.03
2018-04-10T17:07:39.780Z,4.53
2018-04-10T17:11:43.505Z,3.47
2018-04-10T17:15:46.250Z,3.83
2018-04-10T17:19:49.994Z,3.67
2018-04-10T17:23:52.891Z,3.40
2018-04-10T17:27:55.647Z,3.20
2018-04-10T17:32:00.381Z,4.23
2018-04-10T17:36:03.160Z,3.20
2018-04-10T17:40:05.908Z,3.03
2018-04-10T17:44:09.406Z,3.00
2018-04-10T17:48:12.174Z,3.47
2018-04-10T17:52:15.000Z,3.53
2018-04-10T17:56:17.758Z,3.23
2018-04-10T18:00:20.622Z,2.90
2018-04-10T18:04:23.480Z,3.47
2018-04-10T18:08:26.224Z,3.33
2018-04-10T18:12:29.162Z,2.90
2018-04-10T18:16:31.980Z,3.43
2018-04-10T18:20:34.841Z,3.50
2018-04-10T18:24:37.740Z,3.60
2018-04-10T18:28:41.374Z,4.00
2018-04-10T18:32:46.399Z,3.73
2018-04-10T18:36:49.132Z,3.13
2018-04-10T18:40:51.837Z,3.93
2018-04-10T18:44:55.091Z,3.83
2018-04-10T18:49:00.960Z,3.77
2018-04-10T18:53:03.993Z,3.70
2018-04-10T18:57:06.988Z,4.13
2018-04-10T19:01:09.745Z,3.53
2018-04-10T19:05:13.480Z,4.07
2018-04-10T19:09:17.907Z,4.57
2018-04-10T19:13:21.568Z,3.70
2018-04-10T19:17:24.321Z,3.60
2018-04-10T19:21:27.853Z,3.70
2018-04-10T19:25:31.132Z,4.87
2018-04-10T19:29:34.870Z,4.37
2018-04-10T19:33:37.865Z,3.20
2018-04-10T19:37:40.809Z,4.90
2018-04-10T19:41:43.625Z,5.10
2018-04-10T19:45:46.412Z,4.87
2018-04-10T19:49:49.173Z,4.47
2018-04-10T19:53:52.029Z,4.10
2018-04-10T19:57:55.201Z,3.07
2018-04-10T20:01:58.760Z,3.03
2018-04-10T20:06:02.338Z,3.30
2018-04-10T20:10:05.076Z,2.97
2018-04-10T20:14:07.815Z,2.70
2018-04-10T20:18:10.696Z,2.70
2018-04-10T20:22:13.428Z,3.20
2018-04-10T20:26:16.292Z,2.80
2018-04-10T20:30:19.024Z,2.60
2018-04-10T20:34:21.831Z,3.20
2018-04-10T20:38:25.340Z,3.50
2018-04-10T20:42:28.445Z,2.70
2018-04-10T20:46:31.211Z,2.87
2018-04-10T20:50:34.121Z,2.87
2018-04-10T20:54:36.827Z,3.40
2018-04-10T20:58:39.583Z,2.90
2018-04-10T21:02:42.368Z,2.50
2018-04-10T21:06:45.110Z,2.70
2018-04-10T21:10:47.913Z,2.57
2018-04-10T21:14:50.788Z,3.23
2018-04-10T21:18:53.568Z,2.40
2018-04-10T21:22:57.067Z,2.60
2018-04-10T21:27:01.017Z,2.90
2018-04-10T21:31:04.512Z,3.13
2018-04-10T21:35:07.347Z,3.00
2018-04-10T21:39:11.052Z,2.90
2018-04-10T21:43:20.413Z,2.37
2018-04-10T21:47:23.127Z,2.97
2018-04-10T21:51:26.343Z,2.50
2018-04-10T21:55:29.081Z,3.67
2018-04-10T21:59:32.785Z,2.47
2018-04-10T22:03:36.573Z,2.53
2018-04-10T22:07:40.354Z,2.60
2018-04-10T22:11:43.269Z,4.40
2018-04-10T22:15:46.176Z,2.97
2018-04-10T22:19:48.902Z,2.50
2018-04-10T22:23:51.700Z,2.77
2018-04-10T22:27:54.428Z,2.70
2018-04-10T22:31:58.016Z,2.20
2018-04-10T22:36:00.747Z,2.67
2018-04-10T22:40:03.739Z,2.40
2018-04-10T22:44:06.459Z,2.97
2018-04-10T22:48:10.330Z,2.77
2018-04-10T22:52:14.104Z,2.70
2018-04-10T22:56:16.857Z,2.30
2018-04-10T23:00:54.094Z,2.77
2018-04-10T23:04:56.829Z,2.47
2018-04-10T23:08:59.729Z,3.00
2018-04-10T23:13:03.243Z,2.40
2018-04-10T23:17:06.737Z,2.70
2018-04-10T23:21:09.722Z,3.00
2018-04-10T23:25:12.535Z,3.17
2018-04-10T23:29:15.926Z,3.07
2018-04-10T23:33:18.910Z,2.90
2018-04-10T23:37:21.800Z,3.03
2018-04-10T23:41:25.370Z,2.80
2018-04-10T23:45:28.266Z,2.70
2018-04-10T23:49:30.968Z,2.87
2018-04-10T23:53:33.767Z,3.43
2018-04-10T23:57:36.478Z,2.80
